createdAt,value
2023-09-24T00:01:19.419Z,101143.88
2023-09-24T00:03:50.959Z,101137.22
2023-09-24T00:06:22.561Z,101150.13
2023-09-24T00:08:53.485Z,101108.91
2023-09-24T00:11:24.400Z,101156.63
2023-09-24T00:13:58.306Z,101148.28
2023-09-24T00:16:29.845Z,101152.22
2023-09-24T00:19:00.767Z,101157.63
2023-09-24T00:21:31.734Z,101156.81
2023-09-24T00:24:04.751Z,101155.75
2023-09-24T00:26:35.726Z,101156.09
2023-09-24T00:29:11.288Z,101162.03
2023-09-24T00:31:42.231Z,101157.25
2023-09-24T00:34:13.311Z,101168.59
2023-09-24T00:36:44.348Z,101163.56
2023-09-24T00:39:15.252Z,101172.09
2023-09-24T00:41:47.353Z,101170.69
2023-09-24T00:44:20.996Z,101177.16
2023-09-24T00:46:52.172Z,101168.72
2023-09-24T00:49:23.105Z,101169.34
2023-09-24T00:51:54.260Z,101170.47
2023-09-24T00:54:25.295Z,101174.19
2023-09-24T00:57:00.144Z,101187.97
2023-09-24T00:59:34.204Z,101177.31
2023-09-24T01:02:05.582Z,101177.13
2023-09-24T01:04:36.891Z,101182.94
2023-09-24T01:07:07.888Z,101185.22
2023-09-24T01:09:39.448Z,101182.69
2023-09-24T01:12:23.991Z,101183.59
2023-09-24T01:14:58.808Z,101186.19
2023-09-24T01:17:30.085Z,101189.00
2023-09-24T01:20:02.429Z,101185.03
2023-09-24T01:22:38.244Z,101182.53
2023-09-24T01:25:09.798Z,101193.78
2023-09-24T01:27:40.793Z,101190.72
2023-09-24T01:30:14.314Z,101193.00
2023-09-24T01:32:45.732Z,101191.63
2023-09-24T01:35:17.061Z,101191.91
2023-09-24T01:37:50.527Z,101196.16
2023-09-24T01:40:23.279Z,101199.28
2023-09-24T01:42:58.865Z,101198.75
2023-09-24T01:45:29.960Z,101201.84
2023-09-24T01:48:00.979Z,101180.16
2023-09-24T01:50:33.504Z,101203.88
2023-09-24T01:53:09.516Z,101208.66
2023-09-24T01:55:42.182Z,101197.19
2023-09-24T01:58:13.178Z,101211.53
2023-09-24T02:00:44.133Z,101209.09
2023-09-24T02:03:15.203Z,101202.94
2023-09-24T02:05:46.511Z,101200.78
2023-09-24T02:08:20.627Z,101205.63
2023-09-24T02:10:51.678Z,101213.81
2023-09-24T02:13:22.889Z,101188.41
2023-09-24T02:15:53.990Z,101215.56
2023-09-24T02:18:27.159Z,101218.97
2023-09-24T02:20:59.541Z,101211.44
2023-09-24T02:23:33.277Z,101211.78
2023-09-24T02:26:04.203Z,101218.81
2023-09-24T02:28:35.171Z,101219.41
2023-09-24T02:31:06.372Z,101214.66
2023-09-24T02:33:38.113Z,101212.75
2023-09-24T02:36:10.793Z,101213.91
2023-09-24T02:38:44.841Z,101216.16
2023-09-24T02:41:15.854Z,101214.78
2023-09-24T02:43:47.174Z,101221.22
2023-09-24T02:46:19.113Z,101228.56
2023-09-24T02:48:52.884Z,101213.69
2023-09-24T02:51:23.960Z,101222.69
2023-09-24T02:53:57.571Z,101219.63
2023-09-24T02:56:29.935Z,101224.97
2023-09-24T02:59:01.145Z,101230.28
2023-09-24T03:01:32.187Z,101223.53
2023-09-24T03:04:08.048Z,101228.31
2023-09-24T03:06:39.220Z,101233.09
2023-09-24T03:09:13.475Z,101196.75
2023-09-24T03:11:44.815Z,101230.31
2023-09-24T03:14:15.699Z,101234.56
2023-09-24T03:16:47.182Z,101229.22
2023-09-24T03:19:18.078Z,101246.88
2023-09-24T03:21:49.054Z,101243.25
2023-09-24T03:24:24.253Z,101242.97
2023-09-24T03:26:55.611Z,101244.94
2023-09-24T03:29:26.589Z,101249.41
2023-09-24T03:31:57.602Z,101247.97
2023-09-24T03:34:28.626Z,101256.38
2023-09-24T03:36:59.483Z,101262.25
2023-09-24T03:39:33.161Z,101264.75
2023-09-24T03:42:04.143Z,101259.69
2023-09-24T03:44:35.640Z,101260.50
2023-09-24T03:47:06.988Z,101267.25
2023-09-24T03:49:38.110Z,101264.69
2023-09-24T03:52:11.353Z,101271.41
2023-09-24T03:54:44.965Z,101273.91
2023-09-24T03:57:15.937Z,101272.53
2023-09-24T03:59:47.160Z,101276.19
2023-09-24T04:02:18.555Z,101282.94
2023-09-24T04:04:49.423Z,101283.22
2023-09-24T04:07:20.804Z,101275.09
2023-09-24T04:09:54.687Z,101287.22
2023-09-24T04:12:25.656Z,101291.13
2023-09-24T04:14:56.991Z,101294.22
2023-09-24T04:17:28.110Z,101301.81
2023-09-24T04:19:59.660Z,101302.34
2023-09-24T04:22:30.542Z,101304.63
2023-09-24T04:25:04.072Z,101301.81
2023-09-24T04:27:36.574Z,101301.25
2023-09-24T04:30:11.931Z,101312.22
2023-09-24T04:32:43.059Z,101307.19
2023-09-24T04:35:14.507Z,101311.13
2023-09-24T04:37:45.501Z,101311.97
2023-09-24T04:40:20.129Z,101314.75
2023-09-24T04:42:53.377Z,101323.19
2023-09-24T04:45:24.729Z,101321.47
2023-09-24T04:47:55.941Z,101327.34
2023-09-24T04:50:27.369Z,101329.59
2023-09-24T04:52:58.824Z,101324.84
2023-09-24T04:55:32.561Z,101340.31
2023-09-24T04:58:04.203Z,101342.00
2023-09-24T05:00:35.560Z,101342.56
2023-09-24T05:03:07.595Z,101338.94
2023-09-24T05:05:38.889Z,101340.91
2023-09-24T05:08:09.893Z,101336.69
2023-09-24T05:10:46.548Z,101344.56
2023-09-24T05:13:17.455Z,101336.69
2023-09-24T05:15:55.159Z,101338.13
2023-09-24T05:18:26.169Z,101333.97
2023-09-24T05:20:57.524Z,101348.53
2023-09-24T05:23:29.037Z,101358.06
2023-09-24T05:26:03.033Z,101355.84
2023-09-24T05:28:34.324Z,101355.03
2023-09-24T05:31:05.194Z,101359.22
2023-09-24T05:33:36.286Z,101362.84
2023-09-24T05:36:09.232Z,101344.09
2023-09-24T05:38:40.290Z,101357.81
2023-09-24T05:41:13.862Z,101361.72
2023-09-24T05:43:46.314Z,101365.38
2023-09-24T05:46:17.586Z,101366.47
2023-09-24T05:48:48.577Z,101353.06
2023-09-24T05:51:19.872Z,101371.53
2023-09-24T05:53:50.889Z,101382.19
2023-09-24T05:56:25.725Z,101384.72
2023-09-24T05:58:57.834Z,101382.47
2023-09-24T06:01:28.788Z,101386.38
2023-09-24T06:03:59.866Z,101384.38
2023-09-24T06:06:30.881Z,101389.66
2023-09-24T06:09:01.872Z,101396.09
2023-09-24T06:11:37.053Z,101396.09
2023-09-24T06:14:09.855Z,101405.06
2023-09-24T06:16:41.002Z,101408.69
2023-09-24T06:19:12.166Z,101412.31
2023-09-24T06:21:43.337Z,101413.41
2023-09-24T06:24:14.355Z,101414.22
2023-09-24T06:26:47.987Z,101413.66
2023-09-24T06:29:19.207Z,101420.38
2023-09-24T06:31:51.984Z,101417.78
2023-09-24T06:34:23.319Z,101417.72
2023-09-24T06:36:54.331Z,101419.94
2023-09-24T06:39:27.076Z,101394.31
2023-09-24T06:42:01.416Z,101412.78
2023-09-24T06:44:32.580Z,101424.59
2023-09-24T06:47:03.745Z,101418.97
2023-09-24T06:49:34.656Z,101424.88
2023-09-24T06:52:05.549Z,101421.19
2023-09-24T06:54:36.765Z,101425.59
2023-09-24T06:57:10.349Z,101426.88
2023-09-24T06:59:41.372Z,101425.34
2023-09-24T07:02:12.352Z,101436.66
2023-09-24T07:04:43.324Z,101435.13
2023-09-24T07:07:14.312Z,101438.13
2023-09-24T07:09:45.239Z,101428.25
2023-09-24T07:12:19.454Z,101427.66
2023-09-24T07:14:50.371Z,101425.13
2023-09-24T07:17:21.355Z,101430.81
2023-09-24T07:19:53.097Z,101426.34
2023-09-24T07:22:27.778Z,101433.47
2023-09-24T07:24:58.720Z,101424.97
2023-09-24T07:27:32.229Z,101426.91
2023-09-24T07:30:03.705Z,101435.97
2023-09-24T07:32:34.973Z,101447.69
2023-09-24T07:35:06.184Z,101454.66
2023-09-24T07:37:37.511Z,101460.28
2023-09-24T07:40:10.449Z,101454.78
2023-09-24T07:42:47.910Z,101458.25
2023-09-24T07:45:20.054Z,101450.72
2023-09-24T07:47:51.092Z,101454.31
2023-09-24T07:50:22.135Z,101456.50
2023-09-24T07:52:53.190Z,101473.25
2023-09-24T07:55:24.102Z,101463.94
2023-09-24T07:57:57.676Z,101464.63
2023-09-24T08:00:28.819Z,101463.91
2023-09-24T08:02:59.774Z,101454.34
2023-09-24T08:05:31.494Z,101457.59
2023-09-24T08:08:02.483Z,101456.81
2023-09-24T08:10:36.464Z,101448.63
2023-09-24T08:13:11.267Z,101447.53
2023-09-24T08:15:42.352Z,101458.81
2023-09-24T08:18:14.156Z,101457.06
2023-09-24T08:20:45.996Z,101460.81
2023-09-24T08:23:16.912Z,101467.94
2023-09-24T08:25:48.145Z,101469.47
2023-09-24T08:28:22.163Z,101472.91
2023-09-24T08:30:53.101Z,101475.28
2023-09-24T08:33:24.133Z,101472.53
2023-09-24T08:35:55.252Z,101474.78
2023-09-24T08:38:26.941Z,101469.03
2023-09-24T08:40:57.921Z,101473.28
2023-09-24T08:43:31.973Z,101471.84
2023-09-24T08:46:03.233Z,101471.38
2023-09-24T08:48:35.346Z,101456.81
2023-09-24T08:51:06.938Z,101447.59
2023-09-24T08:53:38.886Z,101484.31
2023-09-24T08:56:13.306Z,101470.97
2023-09-24T08:58:47.991Z,101462.84
2023-09-24T09:01:19.115Z,101474.09
2023-09-24T09:03:50.778Z,101459.75
2023-09-24T09:06:33.414Z,101444.69
2023-09-24T09:09:04.722Z,101440.06
2023-09-24T09:11:43.704Z,101446.19
2023-09-24T09:14:17.343Z,101452.00
2023-09-24T09:16:59.381Z,101440.28
2023-09-24T09:19:32.433Z,101453.28
2023-09-24T09:22:19.494Z,101453.91
2023-09-24T09:24:51.447Z,101447.25
2023-09-24T09:27:22.461Z,101418.97
2023-09-24T09:29:56.052Z,101445.78
2023-09-24T09:32:39.275Z,101457.91
2023-09-24T09:35:11.444Z,101412.34
2023-09-24T09:37:42.824Z,101441.53
2023-09-24T09:40:15.672Z,101437.00
2023-09-24T09:42:47.039Z,101419.63
2023-09-24T09:45:20.947Z,101442.69
2023-09-24T09:48:03.434Z,101441.03
2023-09-24T09:50:38.220Z,101432.78
2023-09-24T09:53:11.034Z,101423.00
2023-09-24T09:55:43.937Z,101430.66
2023-09-24T09:58:23.514Z,101428.81
2023-09-24T10:01:00.465Z,101429.44
2023-09-24T10:03:32.568Z,101429.97
2023-09-24T10:06:04.918Z,101422.41
2023-09-24T10:08:49.800Z,101424.22
2023-09-24T10:12:08.016Z,101409.91
2023-09-24T10:14:40.418Z,101392.13
2023-09-24T10:17:30.009Z,101405.09
2023-09-24T10:20:08.096Z,101406.53
2023-09-24T10:22:41.892Z,101403.38
2023-09-24T10:25:38.234Z,101405.72
2023-09-24T10:28:13.120Z,101398.78
2023-09-24T10:31:08.017Z,101397.84
2023-09-24T10:34:03.941Z,101400.13
2023-09-24T10:36:36.296Z,101398.78
2023-09-24T10:39:08.439Z,101401.97
2023-09-24T10:41:40.289Z,101394.91
2023-09-24T10:44:30.250Z,101371.63
2023-09-24T10:47:01.150Z,101389.97
2023-09-24T10:49:35.542Z,101398.34
2023-09-24T10:52:06.726Z,101387.69
2023-09-24T10:54:38.211Z,101384.19
2023-09-24T10:57:09.204Z,101385.16
2023-09-24T10:59:40.868Z,101379.63
2023-09-24T11:02:21.715Z,101390.06
2023-09-24T11:04:56.243Z,101390.09
2023-09-24T11:07:27.248Z,101389.25
2023-09-24T11:09:58.370Z,101388.34
2023-09-24T11:12:29.523Z,101375.66
2023-09-24T11:15:14.426Z,101381.63
2023-09-24T11:17:48.668Z,101385.25
2023-09-24T11:20:23.801Z,101369.59
2023-09-24T11:23:03.021Z,101374.78
2023-09-24T11:25:34.685Z,101361.25
2023-09-24T11:28:07.270Z,101369.63
2023-09-24T11:30:45.759Z,101356.16
2023-09-24T11:33:18.042Z,101336.81
2023-09-24T11:35:52.439Z,101353.34
2023-09-24T11:38:30.685Z,101349.38
2023-09-24T11:41:12.795Z,101348.28
2023-09-24T11:43:44.405Z,101328.44
2023-09-24T11:46:23.989Z,101346.78
2023-09-24T11:48:56.575Z,101337.19
2023-09-24T11:51:31.150Z,101338.56
2023-09-24T11:54:02.295Z,101327.53
2023-09-24T11:56:33.441Z,101345.56
2023-09-24T11:59:04.484Z,101347.19
2023-09-24T12:01:35.507Z,101341.44
2023-09-24T12:04:06.964Z,101347.06
2023-09-24T12:06:40.634Z,101346.97
2023-09-24T12:09:12.036Z,101342.34
2023-09-24T12:11:42.993Z,101343.84
2023-09-24T12:14:14.101Z,101338.72
2023-09-24T12:16:45.022Z,101349.94
2023-09-24T12:19:16.536Z,101339.53
2023-09-24T12:21:50.039Z,101347.22
2023-09-24T12:24:21.004Z,101341.06
2023-09-24T12:26:52.068Z,101348.09
2023-09-24T12:29:23.108Z,101345.56
2023-09-24T12:31:54.137Z,101334.94
2023-09-24T12:34:25.089Z,101343.94
2023-09-24T12:36:58.609Z,101343.34
2023-09-24T12:39:29.649Z,101336.34
2023-09-24T12:42:00.634Z,101343.69
2023-09-24T12:44:31.731Z,101335.75
2023-09-24T12:47:02.826Z,101338.25
2023-09-24T12:49:33.769Z,101337.56
2023-09-24T12:52:07.442Z,101342.63
2023-09-24T12:54:38.389Z,101336.69
2023-09-24T12:57:09.660Z,101298.72
2023-09-24T12:59:40.728Z,101333.41
2023-09-24T13:02:11.751Z,101336.75
2023-09-24T13:04:42.798Z,101333.25
2023-09-24T13:07:16.470Z,101336.63
2023-09-24T13:09:48.237Z,101330.03
2023-09-24T13:12:19.201Z,101324.25
2023-09-24T13:14:50.224Z,101331.97
2023-09-24T13:17:21.143Z,101298.78
2023-09-24T13:19:52.358Z,101331.88
2023-09-24T13:22:25.924Z,101325.69
2023-09-24T13:24:57.178Z,101333.03
2023-09-24T13:27:28.413Z,101326.56
2023-09-24T13:29:59.561Z,101324.34
2023-09-24T13:32:30.606Z,101330.94
2023-09-24T13:35:05.122Z,101329.09
2023-09-24T13:37:51.049Z,101324.06
2023-09-24T13:40:35.668Z,101323.72
2023-09-24T13:43:08.568Z,101301.56
2023-09-24T13:45:43.898Z,101311.72
2023-09-24T13:48:15.316Z,101305.47
2023-09-24T13:50:51.701Z,101312.66
2023-09-24T13:53:25.509Z,101305.34
2023-09-24T13:55:56.546Z,101300.25
2023-09-24T13:58:27.499Z,101295.91
2023-09-24T14:00:58.539Z,101295.44
2023-09-24T14:03:29.611Z,101301.53
2023-09-24T14:06:00.909Z,101298.34
2023-09-24T14:08:47.178Z,101304.44
2023-09-24T14:11:40.215Z,101305.66
2023-09-24T14:14:11.282Z,101301.06
2023-09-24T14:16:45.672Z,101299.03
2023-09-24T14:19:18.101Z,101308.88
2023-09-24T14:21:49.204Z,101304.56
2023-09-24T14:24:22.760Z,101297.91
2023-09-24T14:26:53.749Z,101312.66
2023-09-24T14:29:24.821Z,101303.53
2023-09-24T14:31:55.756Z,101301.53
2023-09-24T14:34:26.678Z,101312.53
2023-09-24T14:36:57.661Z,101301.59
2023-09-24T14:39:31.285Z,101298.75
2023-09-24T14:42:02.225Z,101293.66
2023-09-24T14:44:37.579Z,101287.22
2023-09-24T14:47:08.624Z,101287.38
2023-09-24T14:49:39.813Z,101285.94
2023-09-24T14:52:10.966Z,101282.13
2023-09-24T14:54:44.601Z,101257.78
2023-09-24T14:57:15.636Z,101287.34
2023-09-24T14:59:46.616Z,101280.09
2023-09-24T15:02:18.030Z,101282.47
2023-09-24T15:04:49.159Z,101277.44
2023-09-24T15:07:20.156Z,101277.38
2023-09-24T15:09:53.667Z,101277.25
2023-09-24T15:12:24.681Z,101282.13
2023-09-24T15:14:55.652Z,101272.16
2023-09-24T15:17:27.347Z,101245.16
2023-09-24T15:19:58.287Z,101268.53
2023-09-24T15:22:29.246Z,101259.41
2023-09-24T15:25:02.741Z,101261.63
2023-09-24T15:27:33.815Z,101258.66
2023-09-24T15:30:06.086Z,101255.22
2023-09-24T15:32:37.073Z,101249.19
2023-09-24T15:35:09.104Z,101247.88
2023-09-24T15:37:40.080Z,101248.31
2023-09-24T15:40:16.544Z,101243.06
2023-09-24T15:42:47.728Z,101247.47
2023-09-24T15:45:18.762Z,101247.94
2023-09-24T15:47:49.786Z,101235.47
2023-09-24T15:50:20.927Z,101240.66
2023-09-24T15:52:51.864Z,101238.66
2023-09-24T15:55:25.363Z,101228.72
2023-09-24T15:57:56.286Z,101226.47
2023-09-24T16:00:27.396Z,101225.53
2023-09-24T16:02:58.550Z,101228.66
2023-09-24T16:05:30.533Z,101221.78
2023-09-24T16:08:01.608Z,101193.44
2023-09-24T16:10:35.221Z,101229.38
2023-09-24T16:13:06.499Z,101229.88
2023-09-24T16:15:38.042Z,101233.00
2023-09-24T16:18:09.167Z,101233.00
2023-09-24T16:20:40.157Z,101237.00
2023-09-24T16:23:11.722Z,101243.38
2023-09-24T16:25:45.254Z,101253.13
2023-09-24T16:28:16.140Z,101251.66
2023-09-24T16:30:47.019Z,101249.72
2023-09-24T16:33:18.056Z,101249.22
2023-09-24T16:35:49.059Z,101259.84
2023-09-24T16:38:20.031Z,101255.22
2023-09-24T16:41:00.784Z,101256.25
2023-09-24T16:43:31.804Z,101239.81
2023-09-24T16:46:02.823Z,101260.22
2023-09-24T16:48:33.936Z,101256.22
2023-09-24T16:51:05.075Z,101255.25
2023-09-24T16:53:36.415Z,101253.75
2023-09-24T16:56:10.008Z,101266.19
2023-09-24T16:58:41.580Z,101260.19
2023-09-24T17:01:19.492Z,101261.22
2023-09-24T17:03:51.098Z,101260.78
2023-09-24T17:06:22.600Z,101252.97
2023-09-24T17:08:53.582Z,101262.00
2023-09-24T17:11:27.126Z,101268.88
2023-09-24T17:13:58.114Z,101267.41
2023-09-24T17:16:29.123Z,101266.59
2023-09-24T17:19:00.162Z,101269.97
2023-09-24T17:21:32.014Z,101275.16
2023-09-24T17:24:03.140Z,101261.78
2023-09-24T17:26:36.978Z,101264.81
2023-09-24T17:29:08.104Z,101260.19
2023-09-24T17:31:40.153Z,101261.34
2023-09-24T17:34:11.612Z,101253.38
2023-09-24T17:36:42.549Z,101253.06
2023-09-24T17:39:14.319Z,101258.22
2023-09-24T17:41:48.287Z,101261.88
2023-09-24T17:44:19.214Z,101254.72
2023-09-24T17:46:50.138Z,101255.00
2023-09-24T17:49:21.097Z,101264.69
2023-09-24T17:51:52.013Z,101264.19
2023-09-24T17:54:23.075Z,101263.31
2023-09-24T17:56:56.888Z,101274.63
2023-09-24T17:59:29.496Z,101266.75
2023-09-24T18:02:00.873Z,101279.22
2023-09-24T18:04:31.970Z,101276.97
2023-09-24T18:07:02.983Z,101278.59
2023-09-24T18:09:34.048Z,101281.41
2023-09-24T18:12:08.215Z,101279.34
2023-09-24T18:14:39.327Z,101286.97
2023-09-24T18:17:10.410Z,101290.75
2023-09-24T18:19:41.485Z,101294.69
2023-09-24T18:22:12.485Z,101296.94
2023-09-24T18:24:43.446Z,101307.03
2023-09-24T18:27:17.163Z,101313.44
2023-09-24T18:29:48.366Z,101300.59
2023-09-24T18:32:19.410Z,101303.53
2023-09-24T18:34:50.419Z,101305.63
2023-09-24T18:37:21.425Z,101303.28
2023-09-24T18:39:52.535Z,101319.16
2023-09-24T18:42:27.932Z,101324.31
2023-09-24T18:44:58.998Z,101318.25
2023-09-24T18:47:30.377Z,101322.34
2023-09-24T18:50:01.439Z,101323.63
2023-09-24T18:52:32.658Z,101319.88
2023-09-24T18:55:04.021Z,101323.97
2023-09-24T18:57:37.646Z,101324.38
2023-09-24T19:00:13.054Z,101316.03
2023-09-24T19:02:45.589Z,101320.00
2023-09-24T19:05:16.901Z,101316.66
2023-09-24T19:07:48.101Z,101320.44
2023-09-24T19:10:20.025Z,101310.38
2023-09-24T19:12:53.568Z,101311.22
2023-09-24T19:15:24.772Z,101311.84
2023-09-24T19:17:55.918Z,101298.13
2023-09-24T19:20:26.994Z,101305.97
2023-09-24T19:22:57.914Z,101298.69
2023-09-24T19:25:30.039Z,101301.25
2023-09-24T19:28:03.634Z,101297.41
2023-09-24T19:30:34.711Z,101297.28
2023-09-24T19:33:05.841Z,101301.38
2023-09-24T19:35:36.928Z,101295.81
2023-09-24T19:38:08.616Z,101292.56
2023-09-24T19:40:39.607Z,101297.19
2023-09-24T19:43:13.689Z,101272.72
2023-09-24T19:45:45.001Z,101292.78
2023-09-24T19:48:16.144Z,101289.22
2023-09-24T19:50:47.116Z,101292.88
2023-09-24T19:53:19.203Z,101288.19
2023-09-24T19:55:52.663Z,101290.78
2023-09-24T19:58:26.887Z,101284.28
2023-09-24T20:00:58.589Z,101281.56
2023-09-24T20:03:29.684Z,101293.47
2023-09-24T20:06:00.698Z,101277.25
2023-09-24T20:08:33.394Z,101290.06
2023-09-24T20:11:09.102Z,101281.53
2023-09-24T20:13:45.363Z,101293.97
2023-09-24T20:16:16.526Z,101298.31
2023-09-24T20:18:47.834Z,101301.75
2023-09-24T20:21:19.191Z,101293.94
2023-09-24T20:23:50.540Z,101286.06
2023-09-24T20:26:21.469Z,101290.34
2023-09-24T20:28:55.279Z,101285.09
2023-09-24T20:31:26.508Z,101284.34
2023-09-24T20:34:01.411Z,101274.59
2023-09-24T20:36:34.220Z,101277.41
2023-09-24T20:39:07.886Z,101281.38
2023-09-24T20:41:39.428Z,101272.38
2023-09-24T20:44:13.266Z,101268.19
2023-09-24T20:46:45.489Z,101273.06
2023-09-24T20:49:16.585Z,101266.38
2023-09-24T20:51:47.534Z,101260.53
2023-09-24T20:54:18.592Z,101261.97
2023-09-24T20:56:51.314Z,101254.34
2023-09-24T20:59:26.757Z,101256.03
2023-09-24T21:02:04.660Z,101247.78
2023-09-24T21:04:37.546Z,101252.31
2023-09-24T21:07:09.405Z,101237.91
2023-09-24T21:09:41.153Z,101243.78
2023-09-24T21:12:12.231Z,101204.59
2023-09-24T21:14:45.864Z,101228.19
2023-09-24T21:17:16.911Z,101227.31
2023-09-24T21:19:47.928Z,101231.50
2023-09-24T21:22:18.925Z,101230.69
2023-09-24T21:24:50.016Z,101229.53
2023-09-24T21:27:21.165Z,101222.84
2023-09-24T21:29:56.916Z,101211.66
2023-09-24T21:32:28.095Z,101227.50
2023-09-24T21:35:01.649Z,101229.25
2023-09-24T21:37:32.628Z,101230.13
2023-09-24T21:40:03.977Z,101231.66
2023-09-24T21:42:35.773Z,101232.28
2023-09-24T21:45:10.762Z,101239.13
2023-09-24T21:47:43.521Z,101231.88
2023-09-24T21:50:14.562Z,101237.25
2023-09-24T21:52:45.525Z,101229.22
2023-09-24T21:55:16.789Z,101225.31
2023-09-24T21:57:47.768Z,101228.72
2023-09-24T22:00:22.033Z,101216.94
2023-09-24T22:02:53.487Z,101213.91
2023-09-24T22:05:24.794Z,101209.72
2023-09-24T22:07:55.914Z,101209.47
2023-09-24T22:10:29.503Z,101203.31
2023-09-24T22:13:00.508Z,101215.16
2023-09-24T22:15:34.190Z,101202.84
2023-09-24T22:18:05.369Z,101203.69
2023-09-24T22:20:36.365Z,101203.78
2023-09-24T22:23:07.485Z,101196.44
2023-09-24T22:25:38.443Z,101197.53
2023-09-24T22:28:09.856Z,101196.94
2023-09-24T22:30:43.591Z,101202.47
2023-09-24T22:33:14.654Z,101203.63
2023-09-24T22:35:46.058Z,101199.66
2023-09-24T22:38:14.405Z,101183.50
2023-09-24T22:40:45.355Z,101195.53
2023-09-24T22:43:26.443Z,101194.19
2023-09-24T22:46:01.086Z,101195.63
2023-09-24T22:48:32.221Z,101200.41
2023-09-24T22:51:03.506Z,101194.31
2023-09-24T22:53:34.612Z,101179.19
2023-09-24T22:56:05.617Z,101181.44
2023-09-24T22:58:36.848Z,101181.28
2023-09-24T23:01:12.175Z,101180.50
2023-09-24T23:03:43.321Z,101182.78
2023-09-24T23:06:14.347Z,101179.97
2023-09-24T23:08:45.376Z,101169.31
2023-09-24T23:11:16.437Z,101165.72
2023-09-24T23:13:47.361Z,101160.72
2023-09-24T23:16:20.974Z,101157.06
2023-09-24T23:18:52.204Z,101152.88
2023-09-24T23:21:23.457Z,101151.19
2023-09-24T23:23:54.778Z,101145.56
2023-09-24T23:26:25.839Z,101141.34
2023-09-24T23:28:56.977Z,101141.81
2023-09-24T23:31:30.529Z,101140.84
2023-09-24T23:34:01.514Z,101129.75
2023-09-24T23:36:33.225Z,101136.69
2023-09-24T23:39:06.236Z,101125.69
2023-09-24T23:41:37.263Z,101132.13
2023-09-24T23:44:09.009Z,101119.53
2023-09-24T23:46:42.615Z,101114.72
2023-09-24T23:49:13.589Z,101118.06
2023-09-24T23:51:45.546Z,101125.56
2023-09-24T23:54:17.446Z,101119.41
2023-09-24T23:56:48.431Z,101116.66
2023-09-24T23:59:19.319Z,101119.91
